createdAt,value
2023-03-19T00:00:28.309Z,2.33
2023-03-19T00:02:55.661Z,1.77
2023-03-19T00:05:22.994Z,2.25
2023-03-19T00:07:50.036Z,5.18
2023-03-19T00:10:17.210Z,2.60
2023-03-19T00:12:44.291Z,3.08
2023-03-19T00:15:14.307Z,2.45
2023-03-19T00:17:42.939Z,3.72
2023-03-19T00:20:12.143Z,3.20
2023-03-19T00:22:39.980Z,4.28
2023-03-19T00:25:08.457Z,3.40
2023-03-19T00:27:37.405Z,2.65
2023-03-19T00:30:06.064Z,2.83
2023-03-19T00:32:33.963Z,4.70
2023-03-19T00:35:01.400Z,2.75
2023-03-19T00:37:28.940Z,2.10
2023-03-19T00:39:56.816Z,4.35
2023-03-19T00:42:24.216Z,3.75
2023-03-19T00:44:51.559Z,3.47
2023-03-19T00:47:18.711Z,2.75
2023-03-19T00:49:45.720Z,2.55
2023-03-19T00:52:12.863Z,4.05
2023-03-19T00:54:40.142Z,3.92
2023-03-19T00:57:07.278Z,4.75
2023-03-19T00:59:34.387Z,4.22
2023-03-19T01:02:01.511Z,3.42
2023-03-19T01:04:29.457Z,3.00
2023-03-19T01:06:58.295Z,4.10
2023-03-19T01:09:25.577Z,3.67
2023-03-19T01:11:52.712Z,6.90
2023-03-19T01:14:19.755Z,3.20
2023-03-19T01:16:46.937Z,2.67
2023-03-19T01:19:14.383Z,3.00
2023-03-19T01:21:46.041Z,7.28
2023-03-19T01:24:13.637Z,3.42
2023-03-19T01:26:41.172Z,5.18
2023-03-19T01:29:09.451Z,5.25
2023-03-19T01:31:37.282Z,4.50
2023-03-19T01:34:04.495Z,5.93
2023-03-19T01:36:32.245Z,3.15
2023-03-19T01:38:59.840Z,3.72
2023-03-19T01:41:27.283Z,3.22
2023-03-19T01:43:54.356Z,8.70
2023-03-19T01:46:28.872Z,7.20
2023-03-19T01:48:59.948Z,7.55
2023-03-19T01:51:32.181Z,5.55
2023-03-19T01:54:02.580Z,5.50
2023-03-19T01:56:32.789Z,4.72
2023-03-19T01:59:06.645Z,5.30
2023-03-19T02:01:37.897Z,6.88
2023-03-19T02:04:06.126Z,4.70
2023-03-19T02:06:34.852Z,3.83
2023-03-19T02:09:02.792Z,4.93
2023-03-19T02:11:30.906Z,3.85
2023-03-19T02:13:58.182Z,4.55
2023-03-19T02:16:25.586Z,3.92
2023-03-19T02:18:53.732Z,6.55
2023-03-19T02:21:21.768Z,5.68
2023-03-19T02:23:57.531Z,5.03
2023-03-19T02:26:28.660Z,4.25
2023-03-19T02:28:55.759Z,5.30
2023-03-19T02:31:23.714Z,4.13
2023-03-19T02:34:02.290Z,3.78
2023-03-19T02:36:37.140Z,4.25
2023-03-19T02:39:08.723Z,4.88
2023-03-19T02:41:38.319Z,5.20
2023-03-19T02:44:07.386Z,6.93
2023-03-19T02:46:34.531Z,5.70
2023-03-19T02:49:01.624Z,5.20
2023-03-19T02:51:28.976Z,4.88
2023-03-19T02:53:56.030Z,7.32
2023-03-19T02:56:23.104Z,4.50
2023-03-19T02:58:50.145Z,10.27
2023-03-19T03:01:18.579Z,4.38
2023-03-19T03:03:45.906Z,5.13
2023-03-19T03:06:13.871Z,6.43
2023-03-19T03:08:41.236Z,6.18
2023-03-19T03:11:08.312Z,8.48
2023-03-19T03:13:35.941Z,5.80
2023-03-19T03:16:03.026Z,6.22
2023-03-19T03:18:31.179Z,5.32
2023-03-19T03:20:58.328Z,5.35
2023-03-19T03:23:26.356Z,4.97
2023-03-19T03:25:53.364Z,5.47
2023-03-19T03:28:20.419Z,6.10
2023-03-19T03:30:47.628Z,5.55
2023-03-19T03:33:15.764Z,6.72
2023-03-19T03:35:42.991Z,9.57
2023-03-19T03:38:10.013Z,9.75
2023-03-19T03:40:37.497Z,9.30
2023-03-19T03:43:04.575Z,6.80
2023-03-19T03:45:32.103Z,7.13
2023-03-19T03:47:59.690Z,8.77
2023-03-19T03:50:27.961Z,9.25
2023-03-19T03:52:54.944Z,9.90
2023-03-19T03:55:22.021Z,12.13
2023-03-19T03:57:49.480Z,13.57
2023-03-19T04:00:16.600Z,9.13
2023-03-19T04:02:43.672Z,9.07
2023-03-19T04:05:10.907Z,12.95
2023-03-19T04:07:38.466Z,14.75
2023-03-19T04:10:05.814Z,11.57
2023-03-19T04:12:33.304Z,11.65
2023-03-19T04:15:01.079Z,9.73
2023-03-19T04:17:29.319Z,11.50
2023-03-19T04:19:56.461Z,10.90
2023-03-19T04:22:23.538Z,11.68
2023-03-19T04:24:50.680Z,10.88
2023-03-19T04:27:17.758Z,13.15
2023-03-19T04:29:44.785Z,11.00
2023-03-19T04:32:11.848Z,12.95
2023-03-19T04:34:38.857Z,12.52
2023-03-19T04:37:06.245Z,16.48
2023-03-19T04:39:33.466Z,14.85
2023-03-19T04:42:00.967Z,12.65
2023-03-19T04:44:28.358Z,13.73
2023-03-19T04:46:55.521Z,14.95
2023-03-19T04:49:22.604Z,12.82
2023-03-19T04:51:49.707Z,14.95
2023-03-19T04:54:16.760Z,12.52
2023-03-19T04:56:44.019Z,12.68
2023-03-19T04:59:11.082Z,12.68
2023-03-19T05:01:38.249Z,14.63
2023-03-19T05:04:05.668Z,12.75
2023-03-19T05:06:33.144Z,13.85
2023-03-19T05:09:03.910Z,14.90
2023-03-19T05:11:31.508Z,13.85
2023-03-19T05:13:58.573Z,12.95
2023-03-19T05:16:25.752Z,14.07
2023-03-19T05:18:53.216Z,14.98
2023-03-19T05:21:20.589Z,14.27
2023-03-19T05:23:52.220Z,13.48
2023-03-19T05:26:19.284Z,13.93
2023-03-19T05:28:46.332Z,19.27
2023-03-19T05:31:13.466Z,18.75
2023-03-19T05:33:40.525Z,16.25
2023-03-19T05:36:08.117Z,12.65
2023-03-19T05:38:35.178Z,17.75
2023-03-19T05:41:05.115Z,16.67
2023-03-19T05:43:32.553Z,15.40
2023-03-19T05:46:00.222Z,18.00
2023-03-19T05:48:27.431Z,17.83
2023-03-19T05:50:54.499Z,16.80
2023-03-19T05:53:23.041Z,16.58
2023-03-19T05:55:50.090Z,16.85
2023-03-19T05:58:17.103Z,17.92
2023-03-19T06:00:44.196Z,17.75
2023-03-19T06:03:11.268Z,14.95
2023-03-19T06:05:38.648Z,18.88
2023-03-19T06:08:06.214Z,22.40
2023-03-19T06:10:36.408Z,18.00
2023-03-19T06:13:05.433Z,21.17
2023-03-19T06:15:32.867Z,17.95
2023-03-19T06:18:00.352Z,16.45
2023-03-19T06:20:27.434Z,16.55
2023-03-19T06:22:54.540Z,13.77
2023-03-19T06:25:22.106Z,17.10
2023-03-19T06:27:49.667Z,18.92
2023-03-19T06:30:17.052Z,18.50
2023-03-19T06:32:44.182Z,18.13
2023-03-19T06:35:11.306Z,19.55
2023-03-19T06:37:38.538Z,15.45
2023-03-19T06:40:06.330Z,19.10
2023-03-19T06:42:33.770Z,22.23
2023-03-19T06:45:01.138Z,19.20
2023-03-19T06:47:28.561Z,22.27
2023-03-19T06:49:56.527Z,19.15
2023-03-19T06:52:23.545Z,19.33
2023-03-19T06:54:50.948Z,18.17
2023-03-19T06:57:18.045Z,18.60
2023-03-19T06:59:45.696Z,20.13
2023-03-19T07:02:12.927Z,21.17
2023-03-19T07:04:40.018Z,18.48
2023-03-19T07:07:07.128Z,23.38
2023-03-19T07:09:34.405Z,19.73
2023-03-19T07:12:01.517Z,24.73
2023-03-19T07:14:29.106Z,21.23
2023-03-19T07:16:56.182Z,22.23
2023-03-19T07:19:23.212Z,23.08
2023-03-19T07:21:50.556Z,26.10
2023-03-19T07:24:17.669Z,27.10
2023-03-19T07:26:44.770Z,25.67
2023-03-19T07:29:12.440Z,25.02
2023-03-19T07:31:39.939Z,27.60
2023-03-19T07:34:07.080Z,34.55
2023-03-19T07:36:34.149Z,35.53
2023-03-19T07:39:01.330Z,37.53
2023-03-19T07:41:28.570Z,45.70
2023-03-19T07:43:56.057Z,45.67
2023-03-19T07:46:23.298Z,44.95
2023-03-19T07:48:50.708Z,45.28
2023-03-19T07:51:17.938Z,39.60
2023-03-19T07:53:45.073Z,44.60
2023-03-19T07:56:13.141Z,43.58
2023-03-19T07:58:40.629Z,34.58
2023-03-19T08:01:08.216Z,35.58
2023-03-19T08:03:35.367Z,40.67
2023-03-19T08:06:03.927Z,39.08
2023-03-19T08:08:31.164Z,35.80
2023-03-19T08:10:59.006Z,33.22
2023-03-19T08:13:26.379Z,37.17
2023-03-19T08:15:53.629Z,28.85
2023-03-19T08:18:21.108Z,36.20
2023-03-19T08:20:48.732Z,31.15
2023-03-19T08:23:16.249Z,33.70
2023-03-19T08:25:43.356Z,33.83
2023-03-19T08:28:10.532Z,27.33
2023-03-19T08:30:38.655Z,30.95
2023-03-19T08:33:06.303Z,32.65
2023-03-19T08:35:33.402Z,32.28
2023-03-19T08:38:00.597Z,27.70
2023-03-19T08:40:27.798Z,28.35
2023-03-19T08:42:55.988Z,27.73
2023-03-19T08:45:23.102Z,27.58
2023-03-19T08:47:50.683Z,30.77
2023-03-19T08:50:18.080Z,25.30
2023-03-19T08:52:45.445Z,26.20
2023-03-19T08:55:12.628Z,28.05
2023-03-19T08:57:39.746Z,22.10
2023-03-19T09:00:08.071Z,24.70
2023-03-19T09:02:35.432Z,23.88
2023-03-19T09:05:02.533Z,21.65
2023-03-19T09:07:30.534Z,19.95
2023-03-19T09:09:57.593Z,27.17
2023-03-19T09:12:24.712Z,24.13
2023-03-19T09:14:51.999Z,23.02
2023-03-19T09:17:19.102Z,23.35
2023-03-19T09:19:46.197Z,18.88
2023-03-19T09:22:13.279Z,26.15
2023-03-19T09:24:40.827Z,19.42
2023-03-19T09:27:08.187Z,19.13
2023-03-19T09:29:35.304Z,18.83
2023-03-19T09:32:02.543Z,25.33
2023-03-19T09:34:30.599Z,19.13
2023-03-19T09:36:57.757Z,24.90
2023-03-19T09:39:24.839Z,20.15
2023-03-19T09:42:03.631Z,20.10
2023-03-19T09:44:34.857Z,18.27
2023-03-19T09:47:23.958Z,19.52
2023-03-19T09:49:57.684Z,25.83
2023-03-19T09:55:32.567Z,20.60
2023-03-19T09:58:02.587Z,24.70
2023-03-19T10:00:35.717Z,26.73
2023-03-19T10:03:08.904Z,22.08
2023-03-19T10:06:09.063Z,18.40
2023-03-19T10:08:49.411Z,20.90
2023-03-19T10:11:43.979Z,26.23
2023-03-19T10:14:41.252Z,18.25
2023-03-19T10:17:16.964Z,21.55
2023-03-19T10:19:46.679Z,23.58
2023-03-19T10:22:21.391Z,20.77
2023-03-19T10:24:50.853Z,18.90
2023-03-19T10:27:21.686Z,21.80
2023-03-19T10:29:48.894Z,23.52
2023-03-19T10:32:34.568Z,18.58
2023-03-19T10:35:16.335Z,23.60
2023-03-19T10:37:43.707Z,21.17
2023-03-19T10:40:37.157Z,19.73
2023-03-19T10:43:14.500Z,20.93
2023-03-19T10:45:42.040Z,21.52
2023-03-19T10:48:15.318Z,22.35
2023-03-19T10:50:44.885Z,21.40
2023-03-19T10:53:14.650Z,23.67
2023-03-19T10:55:48.424Z,24.65
2023-03-19T11:00:47.347Z,19.30
2023-03-19T11:03:32.758Z,23.27
2023-03-19T11:06:07.960Z,19.73
2023-03-19T11:08:37.708Z,19.35
2023-03-19T11:11:04.822Z,21.30
2023-03-19T11:13:35.962Z,19.20
2023-03-19T11:16:04.263Z,21.02
2023-03-19T11:18:38.991Z,20.60
2023-03-19T11:21:19.962Z,17.20
2023-03-19T11:24:00.627Z,19.05
2023-03-19T11:26:29.404Z,18.50
2023-03-19T11:29:03.971Z,21.83
2023-03-19T11:31:41.561Z,19.63
2023-03-19T11:34:35.991Z,22.73
2023-03-19T11:39:57.085Z,19.40
2023-03-19T11:43:01.276Z,30.23
2023-03-19T11:46:05.560Z,20.60
2023-03-19T11:48:48.180Z,22.15
2023-03-19T11:51:31.141Z,22.65
2023-03-19T11:54:03.789Z,24.55
2023-03-19T11:56:55.524Z,22.00
2023-03-19T11:59:36.616Z,23.67
2023-03-19T12:02:25.121Z,20.63
2023-03-19T12:05:19.398Z,20.48
2023-03-19T12:08:10.497Z,22.45
2023-03-19T12:11:03.969Z,21.67
2023-03-19T12:13:39.739Z,21.50
2023-03-19T12:16:26.242Z,21.25
2023-03-19T12:19:28.153Z,23.33
2023-03-19T12:22:32.548Z,19.38
2023-03-19T12:25:06.076Z,25.40
2023-03-19T12:27:42.792Z,20.80
2023-03-19T12:30:15.652Z,17.85
2023-03-19T12:32:58.102Z,18.20
2023-03-19T12:35:33.792Z,23.83
2023-03-19T12:38:29.622Z,22.95
2023-03-19T12:41:13.109Z,18.45
2023-03-19T12:43:53.939Z,17.08
2023-03-19T12:46:29.921Z,20.65
2023-03-19T12:49:30.684Z,21.40
2023-03-19T12:52:07.272Z,22.60
2023-03-19T12:54:41.171Z,21.80
2023-03-19T12:57:15.075Z,21.58
2023-03-19T13:00:01.297Z,18.73
2023-03-19T13:02:38.408Z,18.33
2023-03-19T13:05:14.729Z,15.25
2023-03-19T13:08:19.635Z,19.02
2023-03-19T13:10:46.628Z,20.05
2023-03-19T13:13:27.003Z,21.58
2023-03-19T13:16:04.750Z,16.10
2023-03-19T13:18:57.658Z,17.30
2023-03-19T13:21:30.852Z,16.50
2023-03-19T13:24:26.048Z,17.50
2023-03-19T13:26:55.494Z,21.33
2023-03-19T13:29:25.613Z,24.13
2023-03-19T13:32:00.564Z,16.20
2023-03-19T13:34:33.844Z,16.92
2023-03-19T13:37:10.312Z,17.08
2023-03-19T13:39:38.309Z,21.13
2023-03-19T13:42:20.257Z,19.95
2023-03-19T13:45:13.240Z,21.48
2023-03-19T13:47:43.224Z,18.80
2023-03-19T13:50:15.913Z,20.38
2023-03-19T13:52:50.078Z,16.17
2023-03-19T13:55:32.737Z,14.98
2023-03-19T13:58:37.785Z,16.67
2023-03-19T14:01:06.882Z,14.02
2023-03-19T14:03:36.661Z,18.92
2023-03-19T14:06:04.463Z,17.02
2023-03-19T14:08:47.317Z,14.55
2023-03-19T14:11:31.130Z,24.98
2023-03-19T14:14:02.983Z,16.90
2023-03-19T14:16:35.055Z,14.60
2023-03-19T14:19:05.115Z,18.23
2023-03-19T14:21:46.412Z,16.52
2023-03-19T14:27:35.996Z,22.35
2023-03-19T14:30:10.320Z,17.45
2023-03-19T14:32:40.999Z,18.75
2023-03-19T14:35:14.167Z,19.95
2023-03-19T14:37:49.214Z,16.90
2023-03-19T14:40:18.991Z,13.73
2023-03-19T14:43:17.717Z,14.43
2023-03-19T14:46:08.579Z,15.75
2023-03-19T14:49:12.962Z,19.02
2023-03-19T14:51:53.577Z,12.48
2023-03-19T14:54:42.649Z,15.05
2023-03-19T14:57:26.438Z,12.45
2023-03-19T14:59:54.551Z,18.70
2023-03-19T15:02:35.593Z,18.02
2023-03-19T15:05:07.525Z,20.08
2023-03-19T15:07:43.520Z,18.70
2023-03-19T15:10:35.506Z,18.08
2023-03-19T15:13:05.399Z,15.75
2023-03-19T15:15:50.825Z,17.50
2023-03-19T15:18:20.897Z,21.40
2023-03-19T15:20:55.388Z,16.92
2023-03-19T15:23:28.381Z,18.25
2023-03-19T15:26:02.005Z,19.08
2023-03-19T15:28:37.580Z,20.87
2023-03-19T15:31:26.438Z,21.33
2023-03-19T15:33:53.901Z,27.10
2023-03-19T15:36:31.221Z,17.70
2023-03-19T15:39:05.412Z,18.60
2023-03-19T15:41:36.415Z,15.23
2023-03-19T15:44:08.040Z,15.90
2023-03-19T15:46:40.200Z,16.40
2023-03-19T15:49:15.919Z,22.52
2023-03-19T15:51:49.283Z,16.17
2023-03-19T15:54:16.366Z,25.45
2023-03-19T15:56:43.534Z,17.00
2023-03-19T15:59:11.038Z,14.60
2023-03-19T16:01:38.549Z,22.17
2023-03-19T16:04:08.406Z,23.52
2023-03-19T16:06:40.076Z,25.33
2023-03-19T16:09:30.718Z,23.63
2023-03-19T16:11:57.912Z,18.80
2023-03-19T16:14:41.209Z,21.60
2023-03-19T16:17:17.134Z,21.65
2023-03-19T16:19:49.941Z,19.58
2023-03-19T16:22:21.437Z,23.30
2023-03-19T16:24:50.574Z,21.63
2023-03-19T16:27:39.699Z,18.00
2023-03-19T16:30:21.478Z,23.30
2023-03-19T16:33:03.650Z,17.60
2023-03-19T16:35:33.667Z,17.33
2023-03-19T16:38:12.197Z,22.58
2023-03-19T16:40:43.172Z,20.25
2023-03-19T16:43:21.688Z,19.65
2023-03-19T16:46:05.985Z,22.00
2023-03-19T16:48:33.162Z,26.75
2023-03-19T16:51:01.076Z,19.45
2023-03-19T16:53:32.018Z,28.15
2023-03-19T16:56:01.654Z,23.45
2023-03-19T16:58:37.263Z,22.98
2023-03-19T17:01:24.764Z,26.23
2023-03-19T17:03:53.117Z,20.98
2023-03-19T17:06:22.192Z,37.00
2023-03-19T17:08:49.381Z,27.35
2023-03-19T17:11:24.987Z,31.13
2023-03-19T17:13:54.240Z,33.38
2023-03-19T17:16:21.465Z,30.55
2023-03-19T17:18:49.353Z,27.50
2023-03-19T17:21:22.883Z,26.92
2023-03-19T17:26:23.154Z,33.30
2023-03-19T17:28:50.378Z,30.67
2023-03-19T17:31:22.933Z,27.88
2023-03-19T17:33:51.608Z,34.42
2023-03-19T17:36:19.208Z,32.72
2023-03-19T17:38:46.339Z,31.50
2023-03-19T17:41:19.763Z,35.78
2023-03-19T17:43:47.512Z,24.85
2023-03-19T17:46:20.532Z,32.15
2023-03-19T17:48:49.313Z,26.63
2023-03-19T17:51:17.350Z,33.03
2023-03-19T17:53:48.898Z,39.85
2023-03-19T17:56:19.052Z,35.50
2023-03-19T17:58:49.852Z,24.92
2023-03-19T18:01:22.475Z,36.40
2023-03-19T18:03:51.067Z,30.95
2023-03-19T18:06:20.854Z,29.27
2023-03-19T18:08:48.559Z,28.30
2023-03-19T18:11:15.688Z,25.48
2023-03-19T18:13:43.497Z,28.20
2023-03-19T18:16:25.856Z,25.30
2023-03-19T18:18:53.062Z,29.88
2023-03-19T18:21:20.272Z,31.55
2023-03-19T18:23:47.694Z,34.85
2023-03-19T18:26:16.994Z,28.25
2023-03-19T18:28:44.584Z,31.38
2023-03-19T18:31:18.126Z,33.42
2023-03-19T18:33:49.887Z,25.80
2023-03-19T18:36:27.949Z,26.73
2023-03-19T18:38:55.896Z,33.17
2023-03-19T18:41:25.327Z,31.92
2023-03-19T18:43:52.458Z,29.92
2023-03-19T18:46:31.937Z,29.35
2023-03-19T18:49:24.003Z,30.08
2023-03-19T18:52:02.220Z,28.70
2023-03-19T18:54:33.135Z,30.85
2023-03-19T18:57:01.823Z,28.98
2023-03-19T18:59:32.811Z,29.65
2023-03-19T19:02:14.461Z,30.27
2023-03-19T19:04:41.789Z,30.65
2023-03-19T19:07:13.284Z,31.48
2023-03-19T19:09:40.382Z,28.23
2023-03-19T19:12:09.452Z,27.20
2023-03-19T19:14:36.588Z,24.95
2023-03-19T19:17:03.963Z,27.85
2023-03-19T19:19:31.772Z,26.67
2023-03-19T19:22:00.000Z,36.90
2023-03-19T19:24:27.005Z,26.48
2023-03-19T19:26:54.530Z,31.27
2023-03-19T19:29:26.590Z,33.33
2023-03-19T19:31:54.721Z,32.00
2023-03-19T19:34:22.711Z,29.63
2023-03-19T19:36:51.078Z,35.92
2023-03-19T19:39:18.310Z,28.98
2023-03-19T19:41:46.484Z,27.25
2023-03-19T19:44:20.093Z,33.60
2023-03-19T19:46:47.199Z,30.38
2023-03-19T19:49:14.841Z,32.15
2023-03-19T19:51:41.961Z,32.90
2023-03-19T19:54:09.206Z,34.70
2023-03-19T19:56:37.274Z,39.30
2023-03-19T19:59:06.578Z,34.13
2023-03-19T20:01:35.548Z,35.47
2023-03-19T20:04:04.217Z,46.22
2023-03-19T20:06:31.881Z,38.78
2023-03-19T20:08:59.449Z,38.35
2023-03-19T20:11:26.801Z,36.20
2023-03-19T20:13:55.710Z,44.78
2023-03-19T20:16:25.342Z,32.53
2023-03-19T20:18:54.619Z,34.40
2023-03-19T20:21:23.093Z,32.03
2023-03-19T20:23:55.049Z,39.92
2023-03-19T20:26:24.764Z,34.67
2023-03-19T20:28:52.891Z,26.02
2023-03-19T20:31:29.968Z,30.55
2023-03-19T20:33:57.752Z,28.45
2023-03-19T20:36:26.617Z,30.13
2023-03-19T20:38:54.036Z,30.02
2023-03-19T20:41:27.165Z,28.05
2023-03-19T20:43:55.522Z,32.88
2023-03-19T20:46:23.292Z,26.65
2023-03-19T20:48:50.621Z,33.00
2023-03-19T20:51:31.395Z,39.38
2023-03-19T20:53:59.723Z,36.20
2023-03-19T20:56:26.997Z,40.58
2023-03-19T20:58:54.223Z,31.33
2023-03-19T21:01:21.691Z,35.25
2023-03-19T21:03:48.800Z,27.27
2023-03-19T21:06:19.226Z,24.77
2023-03-19T21:08:53.344Z,24.92
2023-03-19T21:11:22.545Z,20.92
2023-03-19T21:13:52.646Z,24.77
2023-03-19T21:16:25.720Z,27.80
2023-03-19T21:18:54.015Z,24.52
2023-03-19T21:21:31.305Z,28.27
2023-03-19T21:24:21.656Z,26.15
2023-03-19T21:26:48.784Z,28.45
2023-03-19T21:29:30.804Z,23.27
2023-03-19T21:31:58.368Z,20.92
2023-03-19T21:34:25.637Z,18.63
2023-03-19T21:36:52.722Z,21.33
2023-03-19T21:39:19.737Z,12.77
2023-03-19T21:41:46.923Z,16.92
2023-03-19T21:44:18.311Z,15.80
2023-03-19T21:46:46.996Z,14.00
2023-03-19T21:49:15.109Z,14.07
2023-03-19T21:51:44.838Z,10.55
2023-03-19T21:54:11.924Z,13.18
2023-03-19T21:56:41.533Z,12.85
2023-03-19T21:59:32.195Z,14.50
2023-03-19T22:02:00.734Z,12.82
2023-03-19T22:04:27.856Z,14.43
2023-03-19T22:06:54.868Z,17.33
2023-03-19T22:09:22.527Z,15.20
2023-03-19T22:11:49.539Z,11.80
2023-03-19T22:14:20.230Z,19.10
2023-03-19T22:16:52.395Z,14.57
2023-03-19T22:19:19.868Z,15.45
2023-03-19T22:21:47.567Z,14.93
2023-03-19T22:24:14.584Z,12.60
2023-03-19T22:26:43.424Z,8.70
2023-03-19T22:29:25.481Z,11.10
2023-03-19T22:31:53.608Z,15.57
2023-03-19T22:36:50.542Z,11.68
2023-03-19T22:39:17.825Z,13.95
2023-03-19T22:41:48.119Z,10.80
2023-03-19T22:44:29.706Z,15.73
2023-03-19T22:46:59.681Z,15.45
2023-03-19T22:49:27.988Z,11.73
2023-03-19T22:51:56.509Z,12.25
2023-03-19T22:54:23.742Z,17.33
2023-03-19T22:56:51.100Z,11.75
2023-03-19T22:59:18.713Z,12.73
2023-03-19T23:01:47.643Z,17.08
2023-03-19T23:04:18.439Z,13.43
2023-03-19T23:06:45.890Z,20.38
2023-03-19T23:09:19.139Z,11.05
2023-03-19T23:11:48.157Z,13.57
2023-03-19T23:14:28.456Z,11.77
2023-03-19T23:17:01.557Z,15.32
2023-03-19T23:19:33.929Z,9.45
2023-03-19T23:22:04.920Z,11.00
2023-03-19T23:24:32.498Z,10.02
2023-03-19T23:27:02.597Z,12.10
2023-03-19T23:29:34.191Z,9.23
2023-03-19T23:32:01.615Z,7.18
2023-03-19T23:34:28.920Z,8.68
2023-03-19T23:36:58.040Z,7.13
2023-03-19T23:39:25.625Z,8.93
2023-03-19T23:41:56.755Z,5.88
2023-03-19T23:44:24.152Z,8.02
2023-03-19T23:46:52.068Z,11.77
2023-03-19T23:49:29.014Z,8.30
2023-03-19T23:51:57.476Z,9.90
2023-03-19T23:54:32.707Z,7.47
2023-03-19T23:57:03.056Z,10.07
2023-03-19T23:59:34.501Z,10.20
